Time;durP1;ratioP1;P1;durP2;ratioP2;P2;SDS_P1;SDS_P2;PMS_P1;PMS_P2;Temp;Humidity;BMP_temperature;BMP_pressure;BME280_temperature;BME280_humidity;BME280_pressure;Samples;Min_cycle;Max_cycle;Signal;HPM_P1;HPM_P2
2023/06/28 00:02:00;;;;;;;3.05;1.20;;;22.00;73.50;;;;;;5077764;28;20408;-31
2023/06/28 00:04:27;;;;;;;2.85;1.08;;;21.60;58.40;;;;;;5074233;28;20132;-33
2023/06/28 00:06:54;;;;;;;2.00;1.15;;;22.20;61.70;;;;;;5074354;28;20482;-31
2023/06/28 00:09:20;;;;;;;2.65;1.30;;;21.20;73.10;;;;;;5074342;28;20050;-31
2023/06/28 00:11:47;;;;;;;1.88;1.10;;;;;;;;;;5074296;28;20501;-35
2023/06/28 00:14:15;;;;;;;3.15;1.30;;;21.90;64.30;;;;;;5072696;28;20128;-31
2023/06/28 00:16:43;;;;;;;2.85;1.25;;;;;;;;;;5074036;28;20143;-33
2023/06/28 00:19:10;;;;;;;1.75;1.05;;;;;;;;;;5074300;28;20075;-34
2023/06/28 00:21:37;;;;;;;2.03;1.15;;;;;;;;;;5074985;28;20052;-32
2023/06/28 00:24:04;;;;;;;2.17;1.20;;;;;;;;;;5081946;28;20054;-35
2023/06/28 00:26:31;;;;;;;1.50;1.15;;;21.60;73.40;;;;;;5094183;28;20097;-31
2023/06/28 00:28:58;;;;;;;1.02;0.85;;;;;;;;;;5094219;28;20202;-35
2023/06/28 00:31:26;;;;;;;1.77;1.20;;;22.70;67.20;;;;;;5094186;28;20052;-31
2023/06/28 00:33:53;;;;;;;2.33;1.20;;;;;;;;;;5093387;28;20413;-31
2023/06/28 00:36:19;;;;;;;2.05;1.10;;;21.60;73.50;;;;;;5091873;28;20047;-31
2023/06/28 00:38:46;;;;;;;2.80;1.00;;;21.80;67.30;;;;;;5076227;28;20135;-31
2023/06/28 00:41:13;;;;;;;3.03;1.23;;;20.90;72.30;;;;;;5073542;28;20402;-31
2023/06/28 00:43:40;;;;;;;1.27;1.10;;;21.30;72.60;;;;;;5073443;28;20129;-31
2023/06/28 00:46:06;;;;;;;2.35;1.00;;;22.20;61.60;;;;;;5073607;28;20394;-32
2023/06/28 00:48:34;;;;;;;1.50;1.08;;;21.30;72.80;;;;;;5073881;28;20131;-31
2023/06/28 00:51:02;;;;;;;2.03;1.10;;;;;;;;;;5073413;28;20048;-34
2023/06/28 00:53:30;;;;;;;2.22;1.20;;;;;;;;;;5088139;28;20048;-34
2023/06/28 00:55:57;;;;;;;2.50;1.20;;;;;;;;;;5093828;28;20432;-34
2023/06/28 00:58:24;;;;;;;2.88;1.15;;;21.50;73.20;;;;;;5093685;28;20098;-31
2023/06/28 01:00:51;;;;;;;1.80;1.30;;;22.40;68.30;;;;;;5093339;28;20047;-32
2023/06/28 01:03:19;;;;;;;1.75;1.17;;;;;;;;;;5093038;28;20047;-32
2023/06/28 01:05:48;;;;;;;2.80;1.33;;;22.10;73.40;;;;;;5093314;28;20761;-31
2023/06/28 01:08:15;;;;;;;2.10;1.13;;;;;;;;;;5092878;28;20119;-36
2023/06/28 01:10:42;;;;;;;1.80;1.10;;;22.10;73.10;;;;;;5091970;28;20039;-30
2023/06/28 01:13:09;;;;;;;3.10;1.30;;;21.40;73.20;;;;;;5092748;28;20511;-31
2023/06/28 01:15:35;;;;;;;1.45;1.10;;;21.50;61.90;;;;;;5093075;28;20070;-33
2023/06/28 01:18:02;;;;;;;1.45;1.10;;;21.60;72.70;;;;;;5093345;28;20058;-31
2023/06/28 01:20:30;;;;;;;1.75;1.00;;;22.20;73.10;;;;;;5093105;28;20130;-31
2023/06/28 01:22:58;;;;;;;1.40;1.13;;;21.40;65.90;;;;;;5093160;28;20047;-31
2023/06/28 01:25:25;;;;;;;3.10;1.33;;;;;;;;;;5092395;28;20078;-31
2023/06/28 01:27:52;;;;;;;1.55;1.10;;;21.90;66.90;;;;;;5093403;28;20056;-32
2023/06/28 01:30:23;;;;;;;3.35;1.30;;;;;;;;;;5092819;28;20112;-32
2023/06/28 01:32:50;;;;;;;3.70;1.38;;;21.50;60.00;;;;;;5092686;28;20050;-34
2023/06/28 01:35:16;;;;;;;2.15;1.10;;;20.70;72.40;;;;;;5093011;28;20055;-31
2023/06/28 01:37:43;;;;;;;2.03;1.20;;;21.50;73.30;;;;;;5092171;28;20062;-31
2023/06/28 01:40:12;;;;;;;2.05;1.20;;;21.40;58.00;;;;;;5089347;28;20178;-34
2023/06/28 01:42:39;;;;;;;2.33;1.08;;;21.60;73.00;;;;;;5072217;28;20584;-30
2023/06/28 01:45:07;;;;;;;2.28;1.30;;;21.90;57.20;;;;;;5071950;28;20425;-33
2023/06/28 01:47:34;;;;;;;2.05;1.20;;;21.50;73.30;;;;;;5072600;28;20045;-31
2023/06/28 01:50:00;;;;;;;3.00;1.20;;;21.70;64.70;;;;;;5072563;28;20139;-32
2023/06/28 01:52:27;;;;;;;1.50;1.10;;;20.70;61.20;;;;;;5072258;28;20076;-32
2023/06/28 01:54:54;;;;;;;3.15;1.30;;;21.50;72.90;;;;;;5072217;28;20051;-32
2023/06/28 01:57:22;;;;;;;2.28;1.20;;;21.40;61.90;;;;;;5082185;28;20048;-32
2023/06/28 01:59:48;;;;;;;1.63;1.30;;;20.60;59.80;;;;;;5092244;28;20134;-32
2023/06/28 02:02:16;;;;;;;1.15;0.90;;;22.20;74.00;;;;;;5092343;28;20123;-31
2023/06/28 02:04:43;;;;;;;1.08;0.90;;;;;;;;;;5092386;28;20047;-36
2023/06/28 02:07:11;;;;;;;2.20;1.27;;;21.70;73.00;;;;;;5092143;28;20048;-31
2023/06/28 02:09:37;;;;;;;1.60;0.98;;;22.50;63.10;;;;;;5092272;28;20140;-31
2023/06/28 02:12:05;;;;;;;1.63;1.08;;;21.90;73.40;;;;;;5091997;28;20416;-32
2023/06/28 02:14:33;;;;;;;1.77;0.98;;;21.60;73.00;;;;;;5085517;28;20048;-31
2023/06/28 02:17:00;;;;;;;2.50;1.27;;;21.60;73.30;;;;;;5092034;28;20133;-31
2023/06/28 02:19:29;;;;;;;1.90;1.20;;;20.30;72.40;;;;;;5092243;28;20055;-31
2023/06/28 02:21:56;;;;;;;2.78;1.35;;;21.80;73.10;;;;;;5092142;28;20066;-31
2023/06/28 02:24:23;;;;;;;1.92;1.10;;;22.50;73.90;;;;;;5092104;28;20048;-31
2023/06/28 02:26:50;;;;;;;2.70;1.10;;;;;;;;;;5091024;28;20131;-35
2023/06/28 02:29:17;;;;;;;2.08;1.20;;;;;;;;;;5079661;28;20051;-31
2023/06/28 02:31:45;;;;;;;2.20;1.20;;;22.20;63.60;;;;;;5073702;28;20058;-32
2023/06/28 02:34:12;;;;;;;3.20;1.50;;;;;;;;;;5091799;28;20048;-34
2023/06/28 02:36:39;;;;;;;1.77;1.20;;;21.40;73.40;;;;;;5091394;28;20055;-31
2023/06/28 02:39:06;;;;;;;2.42;1.20;;;;;;;;;;5091653;28;20070;-35
2023/06/28 02:41:33;;;;;;;3.13;1.02;;;20.50;72.50;;;;;;5091851;28;20047;-31
2023/06/28 02:43:59;;;;;;;1.58;1.10;;;21.40;73.30;;;;;;5091666;28;20130;-32
2023/06/28 02:46:26;;;;;;;1.48;1.13;;;21.40;61.40;;;;;;5091201;28;20473;-33
2023/06/28 02:48:54;;;;;;;1.63;1.10;;;20.90;72.70;;;;;;5091793;28;20054;-31
2023/06/28 02:51:21;;;;;;;1.63;1.10;;;;;;;;;;5091259;28;20054;-31
2023/06/28 02:53:48;;;;;;;1.85;1.13;;;21.80;74.10;;;;;;5091259;28;20677;-31
2023/06/28 02:56:15;;;;;;;1.70;1.10;;;21.30;59.60;;;;;;5091873;28;20131;-33
2023/06/28 02:58:42;;;;;;;3.65;1.33;;;21.50;73.40;;;;;;5091770;28;20130;-31
2023/06/28 03:01:09;;;;;;;3.45;1.33;;;21.10;61.00;;;;;;5087031;28;20510;-33
2023/06/28 03:03:37;;;;;;;2.38;1.30;;;;;;;;;;5091133;28;20089;-35
2023/06/28 03:06:05;;;;;;;1.60;1.20;;;22.20;73.90;;;;;;5091738;28;20070;-34
2023/06/28 03:08:32;;;;;;;3.15;1.27;;;;;;;;;;5091262;28;20632;-31
2023/06/28 03:10:59;;;;;;;1.50;1.02;;;22.00;72.50;;;;;;5091755;28;20429;-32
2023/06/28 03:13:26;;;;;;;2.15;1.20;;;20.90;73.20;;;;;;5091167;28;20048;-31
2023/06/28 03:15:53;;;;;;;2.60;1.25;;;21.00;59.80;;;;;;5090997;28;20131;-33
2023/06/28 03:18:19;;;;;;;3.40;1.30;;;21.40;73.20;;;;;;5071613;28;20075;-31
2023/06/28 03:20:47;;;;;;;1.63;1.30;;;;;;;;;;5071360;28;20136;-32
2023/06/28 03:23:15;;;;;;;1.58;1.05;;;22.20;71.10;;;;;;5070903;28;20048;-31
2023/06/28 03:25:42;;;;;;;2.13;1.20;;;;;;;;;;5071174;28;20055;-34
2023/06/28 03:28:08;;;;;;;1.45;1.10;;;22.40;73.80;;;;;;5071362;28;20052;-31
2023/06/28 03:30:35;;;;;;;1.52;1.08;;;;;;;;;;5071146;28;20076;-34
2023/06/28 03:33:03;;;;;;;1.92;1.20;;;21.00;73.50;;;;;;5074961;28;20078;-31
2023/06/28 03:35:30;;;;;;;2.63;1.30;;;;;;;;;;5070929;28;20461;-34
2023/06/28 03:37:57;;;;;;;3.15;1.40;;;20.60;72.90;;;;;;5088332;28;20167;-31
2023/06/28 03:40:25;;;;;;;1.90;1.20;;;21.30;56.70;;;;;;5094334;28;20132;-36
2023/06/28 03:42:52;;;;;;;1.85;1.17;;;;;;;;;;5094863;28;20050;-35
2023/06/28 03:45:19;;;;;;;2.47;1.23;;;22.40;73.90;;;;;;5095013;28;20050;-31
2023/06/28 03:47:47;;;;;;;1.90;1.17;;;21.20;73.30;;;;;;5095189;28;20131;-32
2023/06/28 03:50:14;;;;;;;1.50;1.13;;;21.30;57.00;;;;;;5077896;28;20048;-33
2023/06/28 03:52:41;;;;;;;1.95;1.20;;;;;;;;;;5074614;28;20052;-32
2023/06/28 03:55:08;;;;;;;2.22;1.30;;;21.40;56.80;;;;;;5074405;28;20127;-35
2023/06/28 03:57:36;;;;;;;1.77;1.13;;;21.40;73.70;;;;;;5074305;28;20049;-31
2023/06/28 04:00:07;;;;;;;2.38;1.27;;;20.50;58.10;;;;;;5074553;28;20044;-31
2023/06/28 04:02:34;;;;;;;1.95;1.35;;;;;;;;;;5074553;28;20059;-35
2023/06/28 04:05:01;;;;;;;2.05;1.30;;;21.10;73.20;;;;;;5076438;28;20128;-31
2023/06/28 04:07:28;;;;;;;1.63;1.30;;;22.30;74.00;;;;;;5094649;28;20043;-31
2023/06/28 04:09:55;;;;;;;2.22;1.30;;;;;;;;;;5094449;28;20051;-34
2023/06/28 04:12:21;;;;;;;2.80;1.45;;;21.30;73.90;;;;;;5094729;28;20131;-31
2023/06/28 04:14:50;;;;;;;2.88;1.40;;;21.40;56.90;;;;;;5094284;28;20054;-32
2023/06/28 04:17:16;;;;;;;2.28;1.38;;;21.10;73.50;;;;;;5094565;28;20123;-30
2023/06/28 04:19:44;;;;;;;2.35;1.48;;;22.10;65.10;;;;;;5094662;28;20146;-33
2023/06/28 04:22:11;;;;;;;1.80;1.30;;;;;;;;;;5075491;28;20048;-38
2023/06/28 04:24:38;;;;;;;2.55;1.30;;;;;;;;;;5074068;28;20132;-31
2023/06/28 04:27:06;;;;;;;3.72;1.30;;;21.30;56.90;;;;;;5073837;28;20132;-37
2023/06/28 04:29:33;;;;;;;3.95;1.35;;;;;;;;;;5073946;28;20052;-35
2023/06/28 04:32:02;;;;;;;2.17;1.30;;;22.50;74.10;;;;;;5077747;28;20062;-31
2023/06/28 04:34:29;;;;;;;2.15;1.40;;;;;;;;;;5094080;28;20048;-31
2023/06/28 04:36:58;;;;;;;2.15;1.30;;;21.20;71.50;;;;;;5093507;28;20127;-32
2023/06/28 04:39:26;;;;;;;2.03;1.27;;;20.60;61.40;;;;;;5093887;28;20404;-32
2023/06/28 04:41:52;;;;;;;2.90;1.30;;;21.40;74.10;;;;;;5093754;28;20131;-31
2023/06/28 04:44:20;;;;;;;2.75;1.40;;;;;;;;;;5093300;28;20123;-35
2023/06/28 04:46:47;;;;;;;3.28;1.38;;;21.50;74.10;;;;;;5073879;28;20132;-31
2023/06/28 04:49:15;;;;;;;1.98;1.30;;;21.30;57.10;;;;;;5073605;28;20079;-32
2023/06/28 04:51:42;;;;;;;2.83;1.25;;;21.40;57.10;;;;;;5073319;28;20052;-34
2023/06/28 04:54:08;;;;;;;2.95;1.70;;;21.30;73.90;;;;;;5073104;28;20052;-31
2023/06/28 04:56:37;;;;;;;2.33;1.30;;;21.40;74.20;;;;;;5073346;28;20135;-31
2023/06/28 04:59:05;;;;;;;2.95;1.35;;;;;;;;;;5074447;28;20060;-36
2023/06/28 05:01:34;;;;;;;2.08;1.40;;;20.50;73.40;;;;;;5089805;28;20113;-31
2023/06/28 05:04:01;;;;;;;2.08;1.20;;;21.20;74.00;;;;;;5093044;28;20458;-31
2023/06/28 05:06:29;;;;;;;2.63;1.23;;;21.20;74.60;;;;;;5093570;28;20131;-31
2023/06/28 05:08:56;;;;;;;1.90;1.40;;;21.80;62.70;;;;;;5093385;28;20048;-31
2023/06/28 05:11:23;;;;;;;2.28;1.70;;;;;;;;;;5093180;28;20415;-33
2023/06/28 05:13:49;;;;;;;2.63;1.40;;;21.30;65.70;;;;;;5093246;28;20048;-31
2023/06/28 05:16:16;;;;;;;2.25;1.38;;;;;;;;;;5093235;28;20044;-31
2023/06/28 05:18:43;;;;;;;2.33;1.35;;;21.00;74.00;;;;;;5075584;28;20131;-33
2023/06/28 05:21:10;;;;;;;2.65;1.35;;;21.20;74.30;;;;;;5073102;28;20123;-31
2023/06/28 05:23:38;;;;;;;2.22;1.30;;;21.30;57.30;;;;;;5072582;28;20131;-35
2023/06/28 05:26:05;;;;;;;2.38;1.40;;;;;;;;;;5072637;28;20078;-36
2023/06/28 05:28:32;;;;;;;1.88;1.30;;;21.20;73.90;;;;;;5073051;28;20136;-31
2023/06/28 05:31:00;;;;;;;1.65;1.30;;;;;;;;;;5072979;28;20505;-35
2023/06/28 05:33:27;;;;;;;3.70;1.40;;;21.30;66.60;;;;;;5080498;28;20070;-31
2023/06/28 05:35:54;;;;;;;1.88;1.40;;;21.40;65.70;;;;;;5072992;28;20064;-31
2023/06/28 05:38:21;;;;;;;2.83;1.52;;;21.30;73.90;;;;;;5092875;28;20649;-30
2023/06/28 05:40:53;;;;;;;2.08;1.50;;;21.80;64.20;;;;;;5091869;28;20048;-32
2023/06/28 05:43:21;;;;;;;1.67;1.35;;;;;;;;;;5072401;28;20477;-31
2023/06/28 05:45:48;;;;;;;1.90;1.45;;;21.10;59.40;;;;;;5072502;28;20051;-34
2023/06/28 05:48:16;;;;;;;2.20;1.40;;;;;;;;;;5072382;28;20456;-36
2023/06/28 05:50:45;;;;;;;2.20;1.48;;;21.00;74.70;;;;;;5075522;28;20474;-31
2023/06/28 05:53:12;;;;;;;2.60;1.40;;;;;;;;;;5092081;28;20063;-34
2023/06/28 05:55:39;;;;;;;1.40;1.13;;;20.60;74.00;;;;;;5092670;28;20044;-32
2023/06/28 05:58:07;;;;;;;2.00;1.30;;;22.30;65.50;;;;;;5092298;28;20134;-31
2023/06/28 06:00:33;;;;;;;2.95;1.73;;;20.70;73.70;;;;;;5092456;28;20054;-31
2023/06/28 06:03:00;;;;;;;1.98;1.40;;;21.60;63.00;;;;;;5091575;28;20127;-32
2023/06/28 06:05:27;;;;;;;3.08;1.50;;;;;;;;;;5086007;28;20119;-37
2023/06/28 06:07:54;;;;;;;2.05;1.58;;;;;;;;;;5074171;28;20132;-32
2023/06/28 06:10:21;;;;;;;2.28;1.40;;;21.60;74.30;;;;;;5077385;28;20059;-31
2023/06/28 06:12:47;;;;;;;2.80;1.60;;;21.30;74.40;;;;;;5078590;28;20406;-31
2023/06/28 06:15:15;;;;;;;1.67;1.30;;;21.30;57.50;;;;;;5091684;28;20051;-35
2023/06/28 06:17:42;;;;;;;2.10;1.40;;;;;;;;;;5092240;28;20123;-35
2023/06/28 06:20:10;;;;;;;2.60;1.40;;;20.90;74.00;;;;;;5092115;28;20135;-31
2023/06/28 06:22:37;;;;;;;2.55;1.70;;;21.60;66.90;;;;;;5090113;28;20135;-31
2023/06/28 06:25:04;;;;;;;3.58;1.40;;;21.70;58.20;;;;;;5091356;28;20451;-33
2023/06/28 06:27:32;;;;;;;2.53;1.42;;;;;;;;;;5086057;28;20136;-36
2023/06/28 06:29:59;;;;;;;1.90;1.38;;;;;;;;;;5082933;28;20505;-36
2023/06/28 06:32:27;;;;;;;2.97;1.58;;;20.30;73.60;;;;;;5091867;28;20560;-31
2023/06/28 06:34:57;;;;;;;2.38;1.60;;;;;;;;;;5091932;28;20054;-33
2023/06/28 06:37:24;;;;;;;3.05;1.50;;;21.30;74.50;;;;;;5088373;28;20153;-31
2023/06/28 06:39:51;;;;;;;2.33;1.52;;;;;;;;;;5088410;28;20138;-35
2023/06/28 06:42:18;;;;;;;2.78;1.70;;;21.30;74.60;;;;;;5091805;28;20135;-31
2023/06/28 06:44:44;;;;;;;2.83;1.98;;;20.20;74.10;;;;;;5091896;28;20507;-32
2023/06/28 06:47:11;;;;;;;3.47;1.70;;;;;;;;;;5091449;28;20048;-34
2023/06/28 06:49:39;;;;;;;2.35;1.50;;;20.90;71.70;;;;;;5092199;28;20052;-31
2023/06/28 06:52:07;;;;;;;2.22;1.50;;;21.30;74.20;;;;;;5091936;28;20134;-30
2023/06/28 06:54:34;;;;;;;2.78;1.50;;;21.00;61.10;;;;;;5089945;28;20127;-33
2023/06/28 06:57:01;;;;;;;3.22;1.45;;;21.20;74.20;;;;;;5092087;28;20170;-30
2023/06/28 06:59:28;;;;;;;2.20;1.40;;;20.20;73.60;;;;;;5091719;28;20052;-31
2023/06/28 07:01:55;;;;;;;3.90;1.45;;;20.90;74.10;;;;;;5091483;28;20044;-30
2023/06/28 07:04:22;;;;;;;2.58;1.45;;;;;;;;;;5091670;28;20048;-35
2023/06/28 07:06:50;;;;;;;4.03;1.40;;;21.60;74.40;;;;;;5091924;28;20067;-31
2023/06/28 07:09:17;;;;;;;3.25;1.48;;;21.10;74.20;;;;;;5091621;28;20131;-30
2023/06/28 07:11:44;;;;;;;2.03;1.40;;;;;;;;;;5086770;28;20123;-36
2023/06/28 07:14:11;;;;;;;2.53;1.35;;;20.50;73.80;;;;;;5093667;28;20058;-32
2023/06/28 07:16:38;;;;;;;2.80;1.67;;;21.70;75.30;;;;;;5087771;28;20054;-32
2023/06/28 07:19:05;;;;;;;2.72;1.92;;;;;;;;;;5085277;28;20048;-35
2023/06/28 07:21:32;;;;;;;3.22;1.52;;;;;;;;;;5074967;28;20047;-35
2023/06/28 07:24:00;;;;;;;2.47;1.52;;;20.70;73.80;;;;;;5074703;28;20127;-31
2023/06/28 07:26:27;;;;;;;6.57;1.75;;;21.20;75.10;;;;;;5074081;28;20041;-32
2023/06/28 07:28:54;;;;;;;2.17;1.60;;;;;;;;;;5073966;28;20131;-34
2023/06/28 07:31:21;;;;;;;2.38;1.50;;;21.50;73.30;;;;;;5073572;28;20102;-32
2023/06/28 07:33:48;;;;;;;3.67;1.63;;;21.10;71.60;;;;;;5081099;28;20128;-32
2023/06/28 07:36:15;;;;;;;6.40;1.60;;;;;;;;;;5076535;28;20044;-35
2023/06/28 07:38:42;;;;;;;5.88;1.40;;;21.60;74.50;;;;;;5094195;28;20131;-33
2023/06/28 07:41:10;;;;;;;4.82;1.73;;;20.30;69.80;;;;;;5093871;28;20493;-31
2023/06/28 07:43:37;;;;;;;3.58;1.70;;;21.40;74.70;;;;;;5079375;28;20049;-35
2023/06/28 07:46:03;;;;;;;2.47;1.58;;;21.00;71.40;;;;;;5074809;28;20123;-32
2023/06/28 07:48:30;;;;;;;6.88;1.80;;;20.70;74.50;;;;;;5074602;28;20131;-32
2023/06/28 07:50:57;;;;;;;3.83;1.63;;;21.10;74.70;;;;;;5085940;28;20132;-31
2023/06/28 07:53:24;;;;;;;3.33;1.60;;;21.30;75.30;;;;;;5082891;28;20127;-31
2023/06/28 07:55:50;;;;;;;4.00;1.70;;;21.80;75.20;;;;;;5084844;28;20122;-33
2023/06/28 07:58:20;;;;;;;2.58;1.50;;;21.20;57.90;;;;;;5075887;28;20050;-37
2023/06/28 08:00:47;;;;;;;3.13;1.50;;;;;;;;;;5091897;28;20156;-33
2023/06/28 08:03:14;;;;;;;2.92;1.60;;;;;;;;;;5094387;28;20131;-35
2023/06/28 08:05:41;;;;;;;3.78;1.60;;;;;;;;;;5094057;28;20549;-32
2023/06/28 08:08:08;;;;;;;3.83;1.60;;;;;;;;;;5073362;28;20072;-34
2023/06/28 08:10:35;;;;;;;3.40;1.60;;;21.60;75.00;;;;;;5073528;28;20048;-31
2023/06/28 08:13:02;;;;;;;3.25;1.65;;;;;;;;;;5073449;28;20128;-33
2023/06/28 08:15:33;;;;;;;3.08;1.70;;;21.00;74.30;;;;;;5073073;28;20381;-32
2023/06/28 08:18:02;;;;;;;3.00;1.48;;;22.00;71.50;;;;;;5074159;28;20429;-32
2023/06/28 08:20:30;;;;;;;3.40;1.70;;;;;;;;;;5085544;28;20097;-31
2023/06/28 08:22:57;;;;;;;4.28;1.77;;;21.50;68.80;;;;;;5094352;28;20048;-34
2023/06/28 08:25:24;;;;;;;3.20;1.50;;;20.20;59.70;;;;;;5093043;28;20130;-32
2023/06/28 08:27:51;;;;;;;3.38;1.70;;;21.90;75.30;;;;;;5094518;28;20453;-32
2023/06/28 08:30:18;;;;;;;2.25;1.50;;;21.70;75.10;;;;;;5090255;28;20127;-31
2023/06/28 08:32:46;;;;;;;3.80;1.95;;;22.40;58.60;;;;;;5080580;28;20047;-35
2023/06/28 08:35:13;;;;;;;3.83;1.40;;;;;;;;;;5073602;28;20040;-35
2023/06/28 08:37:40;;;;;;;5.68;1.70;;;21.30;74.80;;;;;;5088836;28;20131;-31
2023/06/28 08:40:07;;;;;;;4.63;1.45;;;21.10;74.60;;;;;;5094347;28;20052;-39
2023/06/28 08:42:34;;;;;;;3.03;1.58;;;21.80;75.00;;;;;;5094062;28;20044;-39
2023/06/28 08:45:03;;;;;;;3.88;1.45;;;21.60;57.80;;;;;;5094086;28;20062;-35
2023/06/28 08:47:30;;;;;;;3.25;1.52;;;20.60;71.60;;;;;;5082155;28;20059;-36
2023/06/28 08:49:58;;;;;;;1.95;1.50;;;21.70;57.60;;;;;;5073666;28;20049;-37
2023/06/28 08:52:25;;;;;;;6.88;1.55;;;21.60;59.70;;;;;;5073715;28;20135;-37
2023/06/28 08:54:53;;;;;;;2.17;1.40;;;;;;;;;;5073487;28;20128;-40
2023/06/28 08:57:19;;;;;;;5.90;1.60;;;21.80;65.20;;;;;;5080518;28;20132;-38
2023/06/28 08:59:46;;;;;;;3.65;1.50;;;20.70;73.60;;;;;;5082093;28;20076;-37
2023/06/28 09:02:16;;;;;;;5.07;1.70;;;21.80;57.70;;;;;;5081476;28;20053;-36
2023/06/28 09:04:42;;;;;;;3.00;1.60;;;20.80;73.70;;;;;;5081063;28;20132;-38
2023/06/28 09:07:10;;;;;;;3.03;1.73;;;21.50;74.20;;;;;;5082173;28;20548;-39
2023/06/28 09:09:37;;;;;;;2.50;1.50;;;21.70;74.60;;;;;;5083999;28;20040;-38
2023/06/28 09:12:04;;;;;;;3.22;1.80;;;21.50;58.90;;;;;;5082896;28;20052;-37
2023/06/28 09:14:31;;;;;;;3.92;1.63;;;21.80;74.40;;;;;;5081884;28;20048;-37
2023/06/28 09:16:58;;;;;;;3.03;1.80;;;21.80;61.50;;;;;;5081022;28;20059;-38
2023/06/28 09:19:24;;;;;;;2.70;1.40;;;21.40;74.40;;;;;;5080073;28;20147;-36
2023/06/28 09:21:51;;;;;;;2.95;1.77;;;22.00;74.60;;;;;;5080109;28;20132;-36
2023/06/28 09:24:19;;;;;;;2.58;1.50;;;21.70;57.90;;;;;;5092669;28;20126;-38
2023/06/28 09:26:46;;;;;;;4.28;1.80;;;;;;;;;;5093349;28;20123;-37
2023/06/28 09:29:14;;;;;;;2.13;1.40;;;21.30;74.40;;;;;;5092874;28;20149;-36
2023/06/28 09:31:41;;;;;;;3.65;1.45;;;21.80;74.60;;;;;;5093348;28;20052;-40
2023/06/28 09:34:08;;;;;;;4.70;1.80;;;;;;;;;;5092413;28;20048;-34
2023/06/28 09:36:37;;;;;;;4.30;1.58;;;21.60;74.20;;;;;;5080357;28;20066;-40
2023/06/28 09:39:04;;;;;;;4.72;1.63;;;22.90;71.30;;;;;;5092663;28;20500;-37
2023/06/28 09:41:39;;;;;;;3.88;1.73;;;21.60;60.20;;;;;;5092790;28;20048;-35
2023/06/28 09:44:06;;;;;;;2.33;1.48;;;22.20;75.40;;;;;;5092606;28;20052;-40
2023/06/28 09:46:33;;;;;;;4.93;1.50;;;21.80;74.30;;;;;;5089337;28;20424;-37
2023/06/28 09:49:00;;;;;;;2.25;1.40;;;21.90;74.70;;;;;;5081767;28;20043;-40
2023/06/28 09:51:27;;;;;;;1.95;1.30;;;21.90;62.60;;;;;;5078190;28;20473;-36
2023/06/28 09:53:54;;;;;;;2.63;1.45;;;21.50;74.60;;;;;;5080024;28;20044;-39
2023/06/28 09:56:21;;;;;;;4.15;1.77;;;;;;;;;;5082950;28;20086;-35
2023/06/28 09:58:50;;;;;;;3.15;1.60;;;21.30;63.30;;;;;;5081880;28;20047;-39
2023/06/28 10:01:17;;;;;;;4.70;1.88;;;22.10;74.80;;;;;;5078054;28;20045;-40
2023/06/28 10:03:44;;;;;;;2.95;1.70;;;20.70;62.80;;;;;;5081856;28;20117;-37
2023/06/28 10:06:10;;;;;;;3.22;1.63;;;21.70;75.00;;;;;;5081584;28;20044;-40
2023/06/28 10:08:37;;;;;;;3.20;1.52;;;;;;;;;;5079665;28;20568;-37
2023/06/28 10:11:05;;;;;;;4.43;2.00;;;;;;;;;;5079480;28;20055;-37
2023/06/28 10:13:32;;;;;;;2.58;1.70;;;;;;;;;;5081959;28;20082;-37
2023/06/28 10:16:03;;;;;;;2.55;1.70;;;22.00;75.00;;;;;;5092589;28;20044;-36
2023/06/28 10:18:30;;;;;;;3.92;1.70;;;;;;;;;;5092424;28;20445;-37
2023/06/28 10:20:57;;;;;;;3.75;1.80;;;21.50;75.60;;;;;;5077041;28;20119;-39
2023/06/28 10:23:24;;;;;;;2.75;1.85;;;;;;;;;;5081931;28;20446;-35
2023/06/28 10:25:51;;;;;;;4.35;1.70;;;21.30;75.10;;;;;;5080375;28;20040;-39
2023/06/28 10:28:18;;;;;;;2.05;1.70;;;21.60;75.30;;;;;;5081781;28;20135;-37
2023/06/28 10:30:44;;;;;;;3.00;1.58;;;22.20;67.50;;;;;;5082496;28;20428;-33
2023/06/28 10:33:13;;;;;;;2.63;1.65;;;21.60;58.60;;;;;;5078841;28;20059;-39
2023/06/28 10:35:40;;;;;;;2.50;1.70;;;;;;;;;;5077885;28;20049;-37
2023/06/28 10:38:07;;;;;;;2.17;1.50;;;21.10;74.60;;;;;;5079672;28;20052;-40
2023/06/28 10:40:35;;;;;;;3.35;2.00;;;;;;;;;;5082820;28;20076;-35
2023/06/28 10:43:01;;;;;;;3.22;1.70;;;21.80;75.50;;;;;;5081301;28;20057;-36
2023/06/28 10:45:34;;;;;;;3.00;1.92;;;22.60;75.80;;;;;;5080947;28;20119;-37
2023/06/28 10:48:01;;;;;;;3.05;1.90;;;21.90;68.00;;;;;;5079066;28;20047;-39
2023/06/28 10:50:29;;;;;;;3.88;1.80;;;21.40;75.30;;;;;;5082121;28;20049;-39
2023/06/28 10:52:56;;;;;;;2.00;1.63;;;21.60;75.30;;;;;;5080078;28;20044;-40
2023/06/28 10:55:30;;;;;;;2.60;1.70;;;21.50;58.70;;;;;;5081212;28;20048;-37
2023/06/28 10:58:04;;;;;;;2.75;1.70;;;21.50;58.70;;;;;;5080286;28;20040;-35
2023/06/28 11:00:44;;;;;;;3.00;1.92;;;21.50;58.80;;;;;;5081108;28;20075;-34
2023/06/28 11:03:13;;;;;;;2.78;1.80;;;;;;;;;;5081530;28;20075;-38
2023/06/28 11:05:52;;;;;;;2.95;2.03;;;21.90;75.80;;;;;;5080973;28;20052;-40
2023/06/28 11:08:19;;;;;;;4.68;1.90;;;21.10;74.90;;;;;;5080798;28;20045;-37
2023/06/28 11:10:46;;;;;;;3.15;1.88;;;21.50;58.90;;;;;;5082163;28;20044;-37
2023/06/28 11:13:13;;;;;;;4.25;2.20;;;22.10;76.40;;;;;;5080624;28;20070;-37
2023/06/28 11:15:43;;;;;;;4.93;2.03;;;21.80;69.20;;;;;;5082599;28;20123;-36
2023/06/28 11:18:11;;;;;;;4.88;2.03;;;21.50;75.30;;;;;;5083944;28;20044;-38
2023/06/28 11:20:53;;;;;;;2.80;1.90;;;21.50;59.00;;;;;;5087572;28;20057;-36
2023/06/28 11:23:24;;;;;;;4.28;1.98;;;22.50;76.00;;;;;;5071141;28;20054;-39
2023/06/28 11:25:55;;;;;;;4.13;2.10;;;21.30;75.80;;;;;;5071200;28;20059;-32
2023/06/28 11:28:28;;;;;;;2.17;1.77;;;21.00;67.80;;;;;;5071686;28;20052;-33
2023/06/28 11:30:54;;;;;;;4.47;2.10;;;22.20;75.80;;;;;;5072284;28;20076;-31
2023/06/28 11:33:21;;;;;;;3.63;1.90;;;21.50;75.80;;;;;;5090263;28;20132;-31
2023/06/28 11:35:48;;;;;;;2.80;1.85;;;21.80;59.20;;;;;;5084413;28;20127;-33
2023/06/28 11:38:16;;;;;;;2.20;1.60;;;22.20;75.60;;;;;;5071049;28;20135;-32
2023/06/28 11:40:43;;;;;;;4.57;1.80;;;21.80;75.60;;;;;;5070840;28;20465;-31
2023/06/28 11:43:10;;;;;;;2.65;1.80;;;22.00;76.50;;;;;;5070353;28;20052;-32
2023/06/28 11:45:36;;;;;;;3.65;2.38;;;22.10;66.30;;;;;;5071092;28;20045;-32
2023/06/28 11:48:04;;;;;;;2.83;2.03;;;21.20;75.60;;;;;;5071061;28;20057;-32
2023/06/28 11:50:31;;;;;;;3.30;2.17;;;;;;;;;;5070172;28;20048;-34
2023/06/28 11:52:58;;;;;;;2.70;1.90;;;21.70;65.60;;;;;;5070353;28;20081;-32
2023/06/28 11:55:27;;;;;;;2.75;1.92;;;21.50;59.10;;;;;;5070062;28;20052;-35
2023/06/28 11:57:54;;;;;;;3.25;2.22;;;;;;;;;;5070808;28;20489;-31
2023/06/28 12:00:21;;;;;;;3.03;2.15;;;21.30;67.40;;;;;;5071833;28;20564;-33
2023/06/28 12:02:49;;;;;;;3.63;2.10;;;21.10;75.20;;;;;;5074585;28;20098;-31
2023/06/28 12:05:17;;;;;;;2.65;2.10;;;21.20;71.80;;;;;;5074103;28;20151;-33
2023/06/28 12:07:45;;;;;;;3.65;2.40;;;21.50;75.60;;;;;;5074086;28;20131;-32
2023/06/28 12:10:12;;;;;;;4.47;2.30;;;;;;;;;;5077036;28;20391;-32
2023/06/28 12:12:41;;;;;;;3.22;2.08;;;21.50;59.20;;;;;;5086120;28;20063;-35
2023/06/28 12:15:10;;;;;;;2.97;2.28;;;20.40;66.20;;;;;;5082333;28;20053;-33
2023/06/28 12:17:40;;;;;;;2.97;2.50;;;21.30;76.40;;;;;;5083798;28;20044;-32
2023/06/28 12:20:08;;;;;;;3.50;2.10;;;21.30;75.80;;;;;;5085900;28;20421;-31
2023/06/28 12:22:41;;;;;;;3.80;2.38;;;21.50;75.90;;;;;;5079852;28;20127;-32
2023/06/28 12:25:08;;;;;;;3.65;2.10;;;21.40;59.20;;;;;;5079204;28;20044;-35
2023/06/28 12:27:35;;;;;;;3.55;2.35;;;21.50;76.20;;;;;;5088528;28;20123;-32
2023/06/28 12:30:09;;;;;;;3.75;2.70;;;21.40;59.30;;;;;;5081479;28;20131;-35
2023/06/28 12:32:36;;;;;;;3.70;2.40;;;21.50;61.80;;;;;;5090889;28;20051;-33
2023/06/28 12:35:03;;;;;;;4.30;2.53;;;21.50;75.60;;;;;;5077440;28;20597;-32
2023/06/28 12:37:36;;;;;;;4.22;2.83;;;21.40;59.30;;;;;;5080715;28;20492;-36
2023/06/28 12:40:08;;;;;;;3.08;2.20;;;21.40;75.60;;;;;;5081896;28;20063;-31
2023/06/28 12:42:34;;;;;;;3.40;2.80;;;21.40;71.60;;;;;;5080151;28;20485;-32
2023/06/28 12:45:01;;;;;;;3.95;2.90;;;21.80;76.20;;;;;;5077981;28;20058;-31
2023/06/28 12:47:29;;;;;;;3.00;2.55;;;22.10;76.00;;;;;;5082698;28;20040;-31
2023/06/28 12:49:57;;;;;;;3.30;2.35;;;;;;;;;;5073158;28;20064;-34
2023/06/28 12:52:25;;;;;;;5.22;2.95;;;21.90;76.10;;;;;;5073146;28;20501;-31
2023/06/28 12:54:52;;;;;;;3.58;2.75;;;20.30;73.00;;;;;;5072821;28;20139;-32
2023/06/28 12:57:19;;;;;;;5.47;2.45;;;;;;;;;;5073218;28;20045;-34
2023/06/28 12:59:45;;;;;;;3.97;2.67;;;21.70;75.90;;;;;;5072680;28;20481;-40
2023/06/28 13:02:12;;;;;;;3.22;2.40;;;22.30;64.10;;;;;;5073130;28;20087;-39
2023/06/28 13:04:40;;;;;;;3.80;2.50;;;21.20;62.60;;;;;;5073558;28;20044;-35
2023/06/28 13:07:07;;;;;;;4.80;3.20;;;21.00;61.20;;;;;;5073130;28;20049;-33
2023/06/28 13:09:34;;;;;;;4.88;2.70;;;20.60;75.60;;;;;;5073487;28;20055;-39
2023/06/28 13:12:00;;;;;;;4.63;3.15;;;21.50;75.80;;;;;;5072240;28;20048;-40
2023/06/28 13:14:27;;;;;;;4.05;2.67;;;;;;;;;;5072835;28;20132;-38